Progreso Lakes, Texas
Current Conditions -  °F | °C
As of 5:55 PM on Monday 20 Oct 2014 (Local Time) from KT65 Reporting Station
Overcast Overcast  
Wind Chill: 82°   Ceiling: 3900
Heat Index: 85°   Visibility: 7mi
Dew Point: 67°   Wind: 12mph
Humidity: 60%   Direction: 50°NE
Pressure: 29.89"   Gusts: NA
Location:  26.1701°N, 97.9943°W
Report Text: KT65 202255Z AUTO 05010KT 7SM BKN039 BKN075 OVC085 28/20 A2989 RMK AO2 T02800197
Loading
Personal Weather Stations






























Interactive Weather Map
Tropical Storm Tracking
New forecast layout! Learn more

10-Day Weather Forecast

Advertisements
Track Severe Weather on mobile